Time;durP1;ratioP1;P1;durP2;ratioP2;P2;SDS_P1;SDS_P2;PMS_P1;PMS_P2;Temp;Humidity;BMP_temperature;BMP_pressure;BME280_temperature;BME280_humidity;BME280_pressure;Samples;Min_cycle;Max_cycle;Signal;HPM_P1;HPM_P2
2021/09/10 00:00:09;;;;;;;10.20;6.63;;;22.10;91.90;;;;;;4995583;28;20035;-75
2021/09/10 00:02:34;;;;;;;12.45;6.93;;;22.10;92.00;;;;;;4993666;28;20370;-74
2021/09/10 00:05:00;;;;;;;11.52;7.05;;;22.10;92.00;;;;;;4995039;28;20499;-74
2021/09/10 00:07:26;;;;;;;10.63;7.07;;;22.00;92.00;;;;;;4995070;28;20045;-75
2021/09/10 00:09:51;;;;;;;12.20;6.95;;;22.00;92.10;;;;;;4994434;28;20029;-74
2021/09/10 00:12:17;;;;;;;11.73;7.20;;;22.00;92.20;;;;;;4994935;28;20022;-74
2021/09/10 00:14:43;;;;;;;11.00;7.35;;;21.90;92.20;;;;;;4994441;28;20026;-74
2021/09/10 00:17:08;;;;;;;12.10;7.32;;;21.90;92.20;;;;;;5009818;28;20059;-74
2021/09/10 00:19:34;;;;;;;11.57;6.95;;;21.90;92.30;;;;;;4994501;28;20023;-74
2021/09/10 00:22:00;;;;;;;10.88;6.80;;;21.90;92.30;;;;;;4995114;28;20053;-74
2021/09/10 00:24:26;;;;;;;13.48;7.55;;;21.90;92.40;;;;;;4995022;28;20080;-74
2021/09/10 00:26:51;;;;;;;10.77;6.65;;;21.80;92.40;;;;;;4994390;28;20073;-74
2021/09/10 00:29:17;;;;;;;10.93;7.07;;;21.90;92.40;;;;;;4994973;28;20130;-74
2021/09/10 00:31:43;;;;;;;11.05;6.55;;;21.80;92.50;;;;;;4993575;28;20031;-75
2021/09/10 00:34:08;;;;;;;10.65;6.88;;;21.80;92.50;;;;;;4994834;28;20160;-75
2021/09/10 00:36:34;;;;;;;14.43;8.13;;;21.80;92.60;;;;;;4993905;28;20131;-74
2021/09/10 00:39:00;;;;;;;12.85;8.23;;;21.70;92.60;;;;;;5009774;28;20429;-74
2021/09/10 00:41:25;;;;;;;11.93;8.20;;;21.70;92.60;;;;;;4995060;28;20111;-74
2021/09/10 00:43:51;;;;;;;13.07;7.00;;;21.70;92.60;;;;;;4993956;28;20558;-74
2021/09/10 00:46:16;;;;;;;13.68;8.13;;;21.70;92.70;;;;;;4993241;28;20473;-75
2021/09/10 00:48:43;;;;;;;12.60;7.22;;;21.70;92.70;;;;;;5025283;28;20113;-74
2021/09/10 00:51:09;;;;;;;14.48;7.82;;;21.70;92.80;;;;;;5009666;28;20036;-75
2021/09/10 00:53:35;;;;;;;13.70;7.72;;;21.60;92.80;;;;;;4993882;28;20455;-74
2021/09/10 00:56:01;;;;;;;14.75;7.93;;;21.60;92.80;;;;;;4994428;28;20101;-74
2021/09/10 00:58:27;;;;;;;14.25;8.98;;;21.60;92.80;;;;;;4994315;28;20030;-74
2021/09/10 01:00:52;;;;;;;12.13;7.45;;;21.60;92.80;;;;;;4993699;28;20032;-74
2021/09/10 01:03:19;;;;;;;11.90;6.47;;;21.60;92.90;;;;;;5009023;28;20022;-74
2021/09/10 01:05:44;;;;;;;10.77;6.80;;;21.50;92.90;;;;;;4993594;28;20037;-74
2021/09/10 01:08:12;;;;;;;15.35;8.60;;;21.50;92.90;;;;;;4994534;28;20375;-74
2021/09/10 01:10:39;;;;;;;11.82;7.90;;;21.50;92.90;;;;;;4993691;28;20035;-74
2021/09/10 01:13:05;;;;;;;14.38;8.48;;;21.50;93.00;;;;;;4994039;28;20031;-74
2021/09/10 01:15:31;;;;;;;12.32;6.70;;;21.50;93.00;;;;;;4993711;28;20435;-74
2021/09/10 01:17:56;;;;;;;15.75;8.45;;;21.50;93.00;;;;;;4993317;28;20026;-74
2021/09/10 01:20:22;;;;;;;13.63;7.95;;;21.50;93.10;;;;;;4993884;28;20027;-75
2021/09/10 01:22:48;;;;;;;14.55;7.95;;;21.40;93.10;;;;;;5007967;28;20176;-74
2021/09/10 01:25:20;;;;;;;13.77;8.18;;;21.40;93.10;;;;;;4993609;28;20038;-74
2021/09/10 01:27:49;;;;;;;11.77;7.00;;;21.40;93.20;;;;;;4993232;28;20029;-74
2021/09/10 01:30:18;;;;;;;12.95;8.00;;;21.30;93.20;;;;;;4992496;28;20028;-74
2021/09/10 01:32:45;;;;;;;12.68;7.68;;;21.30;93.20;;;;;;4993097;28;20026;-74
2021/09/10 01:35:11;;;;;;;14.95;8.40;;;21.40;93.30;;;;;;4993485;28;20034;-74
2021/09/10 01:37:37;;;;;;;13.10;7.53;;;21.40;93.30;;;;;;4993152;28;20038;-74
2021/09/10 01:40:05;;;;;;;10.60;6.97;;;21.30;93.30;;;;;;5008999;28;20034;-74
2021/09/10 01:42:30;;;;;;;12.60;7.30;;;21.40;93.30;;;;;;4993847;28;20030;-74
2021/09/10 01:44:56;;;;;;;13.02;7.78;;;21.40;93.30;;;;;;4994101;28;20462;-76
2021/09/10 01:47:22;;;;;;;12.65;8.27;;;21.40;93.30;;;;;;4993401;28;20033;-75
2021/09/10 01:49:47;;;;;;;11.90;8.07;;;21.40;93.30;;;;;;4992538;28;20028;-75
2021/09/10 01:52:13;;;;;;;15.82;8.90;;;21.30;93.30;;;;;;5008099;28;20018;-75
2021/09/10 01:54:39;;;;;;;16.20;7.60;;;21.30;93.30;;;;;;4992717;28;20423;-75
2021/09/10 01:57:05;;;;;;;13.65;8.02;;;21.30;93.40;;;;;;4993319;28;20437;-75
2021/09/10 01:59:30;;;;;;;14.57;8.25;;;21.30;93.40;;;;;;4993262;28;20027;-75
2021/09/10 02:01:56;;;;;;;12.98;8.18;;;21.30;93.50;;;;;;5007605;28;20346;-75
2021/09/10 02:04:22;;;;;;;14.23;7.78;;;21.30;93.50;;;;;;4992765;28;20451;-76
2021/09/10 02:06:48;;;;;;;14.50;7.95;;;21.20;93.50;;;;;;4992442;28;20026;-75
2021/09/10 02:09:14;;;;;;;14.48;8.57;;;21.20;93.50;;;;;;4993079;28;20033;-76
2021/09/10 02:11:39;;;;;;;12.75;7.38;;;21.20;93.60;;;;;;4992189;28;20022;-75
2021/09/10 02:14:05;;;;;;;16.15;8.95;;;21.10;93.60;;;;;;4993038;28;20034;-75
2021/09/10 02:16:31;;;;;;;12.63;7.60;;;21.10;93.60;;;;;;4991716;28;20024;-75
2021/09/10 02:18:57;;;;;;;11.93;7.82;;;21.10;93.60;;;;;;4992671;28;20384;-76
2021/09/10 02:21:22;;;;;;;14.77;8.30;;;21.10;93.70;;;;;;4992751;28;20493;-75
2021/09/10 02:23:48;;;;;;;14.68;8.48;;;21.00;93.70;;;;;;4991909;28;20081;-75
2021/09/10 02:26:14;;;;;;;14.20;8.55;;;21.00;93.70;;;;;;4992945;28;20094;-75
2021/09/10 02:28:40;;;;;;;14.55;8.48;;;21.10;93.70;;;;;;4992568;28;20049;-75
2021/09/10 02:31:06;;;;;;;13.25;8.18;;;21.10;93.80;;;;;;4992824;28;20390;-75
2021/09/10 02:33:32;;;;;;;17.02;9.23;;;21.00;93.80;;;;;;4992743;28;20034;-75
2021/09/10 02:35:58;;;;;;;15.30;8.30;;;21.00;93.70;;;;;;4991844;28;20050;-75
2021/09/10 02:38:24;;;;;;;14.77;8.50;;;21.00;93.70;;;;;;4991463;28;20451;-75
2021/09/10 02:40:50;;;;;;;15.48;8.82;;;21.00;93.80;;;;;;5023588;28;20451;-75
2021/09/10 02:43:16;;;;;;;13.15;7.40;;;20.90;93.80;;;;;;5007690;28;20046;-76
2021/09/10 02:45:43;;;;;;;14.90;8.15;;;20.90;93.80;;;;;;4991940;28;20026;-74
2021/09/10 02:48:08;;;;;;;17.83;9.63;;;20.90;93.80;;;;;;4991317;28;20106;-73
2021/09/10 02:50:34;;;;;;;14.57;7.82;;;20.90;93.80;;;;;;4991235;28;20034;-74
2021/09/10 02:53:00;;;;;;;13.93;8.63;;;20.90;93.80;;;;;;4991981;28;20246;-74
2021/09/10 02:55:26;;;;;;;18.05;9.60;;;20.80;93.80;;;;;;4996424;28;20132;-74
2021/09/10 02:57:52;;;;;;;15.75;8.68;;;20.90;93.90;;;;;;5011044;28;20356;-74
2021/09/10 03:00:18;;;;;;;16.20;9.35;;;20.80;93.90;;;;;;4996534;28;20033;-74
2021/09/10 03:02:44;;;;;;;15.32;8.40;;;20.80;93.90;;;;;;4995875;28;20042;-74
2021/09/10 03:05:10;;;;;;;14.00;8.48;;;20.80;94.00;;;;;;4996514;28;20401;-74
2021/09/10 03:07:36;;;;;;;14.07;8.30;;;20.70;94.00;;;;;;5011392;28;20378;-74
2021/09/10 03:10:03;;;;;;;16.20;9.25;;;20.70;94.00;;;;;;4995882;28;20026;-74
2021/09/10 03:12:29;;;;;;;13.00;7.63;;;20.70;94.00;;;;;;4996490;28;20084;-74
2021/09/10 03:14:55;;;;;;;14.40;8.18;;;20.70;94.10;;;;;;4995389;28;20026;-74
2021/09/10 03:17:20;;;;;;;14.68;8.48;;;20.70;94.10;;;;;;4996232;28;20034;-74
2021/09/10 03:19:46;;;;;;;15.30;8.63;;;20.70;94.10;;;;;;4995705;28;20097;-74
2021/09/10 03:22:11;;;;;;;13.13;7.90;;;20.70;94.10;;;;;;4995936;28;20122;-74
2021/09/10 03:24:37;;;;;;;14.90;8.23;;;20.60;94.10;;;;;;4996099;28;20483;-74
2021/09/10 03:27:03;;;;;;;15.70;8.43;;;20.70;94.10;;;;;;4995523;28;20474;-74
2021/09/10 03:29:29;;;;;;;15.18;8.15;;;20.70;94.10;;;;;;4995941;28;20022;-74
2021/09/10 03:31:54;;;;;;;12.70;7.50;;;20.60;94.00;;;;;;4995614;28;20098;-74
2021/09/10 03:34:21;;;;;;;15.88;8.73;;;20.60;94.10;;;;;;4995657;28;20081;-74
2021/09/10 03:36:47;;;;;;;15.10;7.72;;;20.60;94.10;;;;;;4995228;28;20400;-74
2021/09/10 03:39:13;;;;;;;13.57;7.38;;;20.60;94.10;;;;;;4996068;28;20375;-74
2021/09/10 03:41:39;;;;;;;13.30;8.15;;;20.60;94.10;;;;;;4995459;28;20051;-74
2021/09/10 03:44:04;;;;;;;14.10;8.27;;;20.60;94.10;;;;;;4995283;28;20039;-74
2021/09/10 03:46:30;;;;;;;12.27;7.40;;;20.60;94.10;;;;;;4995376;28;20534;-74
2021/09/10 03:48:56;;;;;;;16.70;8.63;;;20.60;94.00;;;;;;4995012;28;20438;-74
2021/09/10 03:51:21;;;;;;;15.63;8.27;;;20.60;94.00;;;;;;4995611;28;20053;-74
2021/09/10 03:53:47;;;;;;;14.90;8.43;;;20.60;94.10;;;;;;4994681;28;20117;-74
2021/09/10 03:56:13;;;;;;;16.23;8.93;;;20.50;94.10;;;;;;4995275;28;20061;-74
2021/09/10 03:58:38;;;;;;;16.20;8.18;;;20.50;94.10;;;;;;4995212;28;20034;-74
2021/09/10 04:01:04;;;;;;;14.02;7.88;;;20.50;94.10;;;;;;5009846;28;20030;-74
2021/09/10 04:03:31;;;;;;;15.55;7.95;;;20.50;94.10;;;;;;4994901;28;20037;-74
2021/09/10 04:05:56;;;;;;;14.80;8.30;;;20.50;94.20;;;;;;4992810;28;20037;-74
2021/09/10 04:08:22;;;;;;;11.75;8.00;;;20.50;94.20;;;;;;4994357;28;20383;-74
2021/09/10 04:10:48;;;;;;;14.80;7.88;;;20.50;94.20;;;;;;4994619;28;20451;-74
2021/09/10 04:13:13;;;;;;;14.07;7.63;;;20.50;94.20;;;;;;4994594;28;20030;-74
2021/09/10 04:15:39;;;;;;;14.18;7.43;;;20.40;94.20;;;;;;4994963;28;20033;-74
2021/09/10 04:18:05;;;;;;;13.75;8.07;;;20.40;94.20;;;;;;5008827;28;20109;-73
2021/09/10 04:20:33;;;;;;;14.35;8.68;;;20.40;94.20;;;;;;4994360;28;20034;-74
2021/09/10 04:23:00;;;;;;;13.02;8.18;;;20.40;94.20;;;;;;4993228;28;20038;-74
2021/09/10 04:25:26;;;;;;;14.75;8.10;;;20.40;94.20;;;;;;4994388;28;20030;-74
2021/09/10 04:27:51;;;;;;;16.13;8.75;;;20.40;94.30;;;;;;4994145;28;20057;-74
2021/09/10 04:30:17;;;;;;;14.10;8.10;;;20.30;94.30;;;;;;4994480;28;20026;-75
2021/09/10 04:32:43;;;;;;;13.43;7.93;;;20.30;94.30;;;;;;4994515;28;20375;-74
2021/09/10 04:35:11;;;;;;;14.35;7.95;;;20.30;94.30;;;;;;4993528;28;20116;-75
2021/09/10 04:37:37;;;;;;;13.40;7.60;;;20.30;94.30;;;;;;4994802;28;20018;-75
2021/09/10 04:40:03;;;;;;;12.85;8.02;;;20.30;94.30;;;;;;4994123;28;20030;-75
2021/09/10 04:42:29;;;;;;;14.23;7.78;;;20.30;94.40;;;;;;4994389;28;20022;-75
2021/09/10 04:44:55;;;;;;;13.02;7.38;;;20.30;94.30;;;;;;5008992;28;20035;-74
2021/09/10 04:47:21;;;;;;;13.07;7.38;;;20.20;94.30;;;;;;4993207;28;20467;-74
2021/09/10 04:49:46;;;;;;;14.18;7.03;;;20.20;94.40;;;;;;4994652;28;20080;-74
2021/09/10 04:52:12;;;;;;;12.07;7.22;;;20.20;94.40;;;;;;4993668;28;20049;-72
2021/09/10 04:54:38;;;;;;;12.48;7.15;;;20.20;94.40;;;;;;4994303;28;20101;-74
2021/09/10 04:57:04;;;;;;;12.02;7.85;;;20.20;94.40;;;;;;4993493;28;20027;-75
2021/09/10 04:59:30;;;;;;;12.38;6.50;;;20.20;94.40;;;;;;4994465;28;20050;-74
2021/09/10 05:01:56;;;;;;;13.23;7.47;;;20.20;94.40;;;;;;5039211;28;20022;-74
2021/09/10 05:04:24;;;;;;;13.52;6.53;;;20.20;94.40;;;;;;5013141;28;20030;-76
2021/09/10 05:06:54;;;;;;;14.40;6.65;;;20.20;94.40;;;;;;5011915;28;20029;-75
2021/09/10 05:09:20;;;;;;;14.43;7.07;;;20.20;94.40;;;;;;5013226;28;20030;-75
2021/09/10 05:11:46;;;;;;;12.50;6.93;;;20.20;94.40;;;;;;5013521;28;20048;-75
2021/09/10 05:14:13;;;;;;;10.52;6.45;;;20.20;94.40;;;;;;5012400;28;20025;-76
2021/09/10 05:16:40;;;;;;;11.68;6.93;;;20.20;94.40;;;;;;5012745;28;20026;-76
2021/09/10 05:19:05;;;;;;;13.90;7.32;;;20.20;94.50;;;;;;5012034;28;20084;-73
2021/09/10 05:21:31;;;;;;;10.95;6.53;;;20.20;94.50;;;;;;5012572;28;20053;-74
2021/09/10 05:23:58;;;;;;;11.70;6.43;;;20.10;94.50;;;;;;5012620;28;20092;-73
2021/09/10 05:26:24;;;;;;;11.05;6.22;;;20.20;94.50;;;;;;5013332;28;20032;-76
2021/09/10 05:28:49;;;;;;;13.23;7.15;;;20.20;94.50;;;;;;5011684;28;20025;-74
2021/09/10 05:31:15;;;;;;;12.05;6.22;;;20.20;94.50;;;;;;5012868;28;20490;-75
2021/09/10 05:33:41;;;;;;;12.40;6.20;;;20.20;94.50;;;;;;5013354;28;20108;-75
2021/09/10 05:36:07;;;;;;;10.82;6.32;;;20.20;94.50;;;;;;5010861;28;20018;-74
2021/09/10 05:38:32;;;;;;;10.70;6.03;;;20.20;94.50;;;;;;5011799;28;20018;-75
2021/09/10 05:40:58;;;;;;;10.40;6.05;;;20.30;94.70;;;;;;5012651;28;20080;-75
2021/09/10 05:43:24;;;;;;;9.85;5.40;;;20.30;94.40;;;;;;5012730;28;20099;-75
2021/09/10 05:45:50;;;;;;;11.85;6.55;;;20.30;94.40;;;;;;5011807;28;20533;-75
2021/09/10 05:48:19;;;;;;;11.82;6.57;;;20.40;94.40;;;;;;5012040;28;20018;-75
2021/09/10 05:50:48;;;;;;;10.88;6.15;;;20.40;94.30;;;;;;5012859;28;20025;-75
2021/09/10 05:53:15;;;;;;;13.75;6.47;;;20.50;94.30;;;;;;5010960;28;20030;-76
2021/09/10 05:55:41;;;;;;;9.98;6.50;;;20.50;94.10;;;;;;5012604;28;20394;-75
2021/09/10 05:58:07;;;;;;;9.98;6.50;;;20.50;94.10;;;;;;5012219;28;20033;-74
2021/09/10 06:00:32;;;;;;;12.75;7.18;;;20.60;94.00;;;;;;5012739;28;20038;-74
2021/09/10 06:02:58;;;;;;;10.20;6.25;;;20.60;94.00;;;;;;5011024;28;20099;-74
2021/09/10 06:05:24;;;;;;;13.23;6.25;;;20.70;93.90;;;;;;5012538;28;20109;-75
2021/09/10 06:07:50;;;;;;;11.30;6.13;;;20.70;93.90;;;;;;5012284;28;20030;-75
2021/09/10 06:10:18;;;;;;;11.02;5.82;;;20.80;93.90;;;;;;5026883;28;20030;-75
2021/09/10 06:12:47;;;;;;;8.90;5.72;;;20.80;93.70;;;;;;5012653;28;20022;-75
2021/09/10 06:15:13;;;;;;;10.60;6.13;;;20.80;93.70;;;;;;5011751;28;20022;-74
2021/09/10 06:17:40;;;;;;;10.57;6.40;;;20.80;93.60;;;;;;5012665;28;20022;-75
2021/09/10 06:20:06;;;;;;;11.25;7.18;;;20.90;93.60;;;;;;5010381;28;20023;-74
2021/09/10 06:22:32;;;;;;;12.50;7.18;;;20.90;93.60;;;;;;5012651;28;20046;-74
2021/09/10 06:24:59;;;;;;;10.32;5.85;;;20.90;93.60;;;;;;5011697;28;20112;-74
2021/09/10 06:27:25;;;;;;;8.68;5.30;;;20.90;93.60;;;;;;5011220;28;20026;-75
2021/09/10 06:29:51;;;;;;;12.73;6.13;;;20.90;93.60;;;;;;5011569;28;20022;-74
2021/09/10 06:32:17;;;;;;;11.63;6.20;;;20.90;93.60;;;;;;5011516;28;20033;-75
2021/09/10 06:34:43;;;;;;;7.70;4.70;;;20.90;93.60;;;;;;5012379;28;20382;-75
2021/09/10 06:37:09;;;;;;;12.15;6.57;;;20.80;93.70;;;;;;5011629;28;20141;-74
2021/09/10 06:39:35;;;;;;;7.28;3.95;;;20.90;93.70;;;;;;5012018;28;20425;-75
2021/09/10 06:42:01;;;;;;;9.57;5.80;;;20.90;93.70;;;;;;5011656;28;20061;-75
2021/09/10 06:44:27;;;;;;;7.82;4.97;;;20.90;93.70;;;;;;5010843;28;20095;-75
2021/09/10 06:46:53;;;;;;;10.77;5.78;;;20.90;93.70;;;;;;5012132;28;20467;-74
2021/09/10 06:49:18;;;;;;;10.02;6.13;;;20.90;93.70;;;;;;5011455;28;20434;-76
2021/09/10 06:51:44;;;;;;;11.68;6.88;;;21.00;93.70;;;;;;5012036;28;20036;-73
2021/09/10 06:54:10;;;;;;;10.20;6.30;;;21.00;93.60;;;;;;5011279;28;20080;-74
2021/09/10 06:56:36;;;;;;;11.32;5.93;;;21.00;93.60;;;;;;5012278;28;20360;-74
2021/09/10 06:59:02;;;;;;;9.20;5.45;;;21.00;93.60;;;;;;5011567;28;20030;-75
2021/09/10 07:01:28;;;;;;;11.13;5.88;;;21.00;93.50;;;;;;5012470;28;20034;-75
2021/09/10 07:03:54;;;;;;;11.00;6.68;;;21.10;93.50;;;;;;5010627;28;20030;-76
2021/09/10 07:06:20;;;;;;;9.63;5.95;;;21.10;93.50;;;;;;5010115;28;20129;-75
2021/09/10 07:08:46;;;;;;;7.97;4.45;;;21.10;93.50;;;;;;5010789;28;20414;-75
2021/09/10 07:11:12;;;;;;;10.93;6.25;;;21.10;93.50;;;;;;5026364;28;20030;-76
2021/09/10 07:13:38;;;;;;;7.15;4.47;;;21.10;93.50;;;;;;5011964;28;20117;-75
2021/09/10 07:16:04;;;;;;;8.85;5.28;;;21.10;93.50;;;;;;5011210;28;20093;-75
2021/09/10 07:18:30;;;;;;;9.82;5.43;;;21.10;93.50;;;;;;5011646;28;20026;-74
2021/09/10 07:20:56;;;;;;;8.05;4.55;;;21.20;93.50;;;;;;5011642;28;20408;-75
2021/09/10 07:23:22;;;;;;;9.10;5.05;;;21.20;93.50;;;;;;5010925;28;20077;-74
2021/09/10 07:25:48;;;;;;;9.07;4.90;;;21.20;93.40;;;;;;5011614;28;20053;-75
2021/09/10 07:28:14;;;;;;;9.65;5.43;;;21.20;93.30;;;;;;5010961;28;20026;-75
2021/09/10 07:30:40;;;;;;;8.90;5.32;;;21.20;93.30;;;;;;5011968;28;20018;-75
2021/09/10 07:33:06;;;;;;;10.77;5.63;;;21.20;93.30;;;;;;5011447;28;20467;-76
2021/09/10 07:35:31;;;;;;;8.80;5.00;;;21.30;93.30;;;;;;5027043;28;20072;-76
2021/09/10 07:37:57;;;;;;;13.18;6.22;;;21.30;93.30;;;;;;5012159;28;20402;-76
2021/09/10 07:40:23;;;;;;;8.80;4.80;;;21.30;93.20;;;;;;5012867;28;20018;-77
2021/09/10 07:42:49;;;;;;;9.93;5.63;;;21.20;93.20;;;;;;5015555;28;20022;-77
2021/09/10 07:45:15;;;;;;;9.18;5.35;;;21.30;93.30;;;;;;5014834;28;20041;-75
2021/09/10 07:47:41;;;;;;;9.32;4.43;;;21.20;93.20;;;;;;5015346;28;20029;-75
2021/09/10 07:50:08;;;;;;;8.15;4.80;;;21.30;93.20;;;;;;5014609;28;20022;-75
2021/09/10 07:52:34;;;;;;;10.50;6.03;;;21.30;93.10;;;;;;5015194;28;20463;-75
2021/09/10 07:54:59;;;;;;;9.45;6.00;;;21.30;93.10;;;;;;5013729;28;20121;-75
2021/09/10 07:57:25;;;;;;;7.45;4.07;;;21.30;93.00;;;;;;5029664;28;20375;-74
2021/09/10 07:59:58;;;;;;;8.57;5.03;;;21.40;93.00;;;;;;5014668;28;20033;-76
2021/09/10 08:02:26;;;;;;;8.63;5.07;;;21.40;92.90;;;;;;5014687;28;20079;-76
2021/09/10 08:04:52;;;;;;;8.40;5.32;;;21.50;92.90;;;;;;5014874;28;20041;-76
2021/09/10 08:07:18;;;;;;;9.75;5.60;;;21.50;92.80;;;;;;5014354;28;20030;-75
2021/09/10 08:09:44;;;;;;;9.52;4.93;;;21.60;92.80;;;;;;5014623;28;20073;-76
2021/09/10 08:12:10;;;;;;;9.30;4.88;;;21.60;92.70;;;;;;5014107;28;20029;-75
2021/09/10 08:14:35;;;;;;;9.35;4.57;;;21.60;92.70;;;;;;5015183;28;20045;-76
2021/09/10 08:17:01;;;;;;;12.10;5.90;;;21.70;92.60;;;;;;5014780;28;20041;-75
2021/09/10 08:19:27;;;;;;;10.32;5.40;;;21.70;92.60;;;;;;5014078;28;20105;-75
2021/09/10 08:21:53;;;;;;;10.05;5.75;;;21.70;92.50;;;;;;5014263;28;20176;-76
2021/09/10 08:24:18;;;;;;;10.10;5.10;;;21.70;92.50;;;;;;5012716;28;20049;-75
2021/09/10 08:26:44;;;;;;;11.00;5.85;;;21.80;92.50;;;;;;5014623;28;20030;-75
2021/09/10 08:29:10;;;;;;;9.75;5.50;;;21.80;92.40;;;;;;5013629;28;20030;-75
2021/09/10 08:31:35;;;;;;;7.97;5.30;;;21.80;92.40;;;;;;5014257;28;20536;-75
2021/09/10 08:34:02;;;;;;;9.23;5.30;;;21.90;92.30;;;;;;5029513;28;20125;-75
2021/09/10 08:36:29;;;;;;;7.25;4.22;;;21.90;92.30;;;;;;5013755;28;20492;-76
2021/09/10 08:38:54;;;;;;;13.55;5.70;;;21.90;92.20;;;;;;5014404;28;20022;-75
2021/09/10 08:41:23;;;;;;;8.68;5.28;;;21.90;92.20;;;;;;5013313;28;20374;-75
2021/09/10 08:43:50;;;;;;;8.15;5.07;;;21.90;92.20;;;;;;5014054;28;20044;-75
2021/09/10 08:46:17;;;;;;;12.30;5.50;;;22.00;92.20;;;;;;5013610;28;20033;-76
2021/09/10 08:48:46;;;;;;;10.45;5.88;;;22.00;92.10;;;;;;5014534;28;20093;-76
2021/09/10 08:51:13;;;;;;;10.50;6.25;;;22.00;92.10;;;;;;5012845;28;20022;-75
2021/09/10 08:53:40;;;;;;;11.63;6.00;;;22.00;92.10;;;;;;5014360;28;20025;-75
2021/09/10 08:56:06;;;;;;;9.30;5.80;;;22.10;92.10;;;;;;5013644;28;20025;-75
2021/09/10 08:58:31;;;;;;;9.35;4.80;;;22.10;92.00;;;;;;5014537;28;20075;-75
2021/09/10 09:01:00;;;;;;;16.75;6.40;;;22.10;92.00;;;;;;5015701;28;20101;-75
2021/09/10 09:03:33;;;;;;;10.85;5.82;;;22.10;91.90;;;;;;5012783;28;20050;-75
2021/09/10 09:06:00;;;;;;;6.60;4.15;;;22.10;92.00;;;;;;5013786;28;20037;-76
2021/09/10 09:08:26;;;;;;;7.05;4.38;;;22.00;92.00;;;;;;5012988;28;20100;-76
2021/09/10 09:11:05;;;;;;;9.43;5.47;;;22.00;92.00;;;;;;5012438;28;20378;-76
2021/09/10 09:13:41;;;;;;;13.48;6.93;;;22.00;92.00;;;;;;5011902;28;20103;-76
2021/09/10 09:16:27;;;;;;;10.00;6.45;;;22.00;92.00;;;;;;5012341;28;20029;-75
2021/09/10 09:18:56;;;;;;;10.23;5.70;;;21.90;91.90;;;;;;5013533;28;20028;-75
2021/09/10 09:21:32;;;;;;;11.75;5.57;;;22.00;92.00;;;;;;5013058;28;20018;-75
2021/09/10 09:24:14;;;;;;;9.80;5.85;;;22.00;91.90;;;;;;5013016;28;20046;-75
2021/09/10 09:26:41;;;;;;;9.35;5.93;;;22.00;91.80;;;;;;5013657;28;20096;-75
2021/09/10 09:29:09;;;;;;;10.88;5.93;;;22.10;91.80;;;;;;5013251;28;20026;-75
2021/09/10 09:31:36;;;;;;;9.05;4.95;;;22.10;91.70;;;;;;5013385;28;20018;-75
2021/09/10 09:34:03;;;;;;;9.88;5.28;;;22.20;91.70;;;;;;5011944;28;20026;-75
2021/09/10 09:36:29;;;;;;;9.27;6.10;;;22.20;91.60;;;;;;5012713;28;20033;-76
2021/09/10 09:38:55;;;;;;;9.35;5.05;;;22.30;91.50;;;;;;5013308;28;20033;-75
2021/09/10 09:41:22;;;;;;;6.85;4.18;;;22.40;91.30;;;;;;5012596;28;20022;-75
2021/09/10 09:44:08;;;;;;;13.30;6.88;;;22.60;91.20;;;;;;5013221;28;20059;-75
2021/09/10 09:46:34;;;;;;;10.93;6.60;;;22.70;91.00;;;;;;5011478;28;20036;-75
2021/09/10 09:49:08;;;;;;;10.05;5.90;;;22.70;90.90;;;;;;5013340;28;20105;-75
2021/09/10 09:51:35;;;;;;;11.55;6.07;;;22.80;90.80;;;;;;5012420;28;20026;-75
2021/09/10 09:54:01;;;;;;;10.60;6.53;;;22.80;90.70;;;;;;5013220;28;20037;-75
2021/09/10 09:56:28;;;;;;;10.32;5.43;;;22.90;90.60;;;;;;5012707;28;20032;-75
2021/09/10 09:58:55;;;;;;;11.13;5.85;;;22.90;90.60;;;;;;5012859;28;20034;-76
2021/09/10 10:01:21;;;;;;;9.98;5.18;;;23.00;90.50;;;;;;5010960;28;20022;-75
2021/09/10 10:03:48;;;;;;;8.20;5.25;;;23.10;90.40;;;;;;5012908;28;20105;-75
2021/09/10 10:06:22;;;;;;;10.70;5.47;;;23.20;90.30;;;;;;5010970;28;20466;-75
2021/09/10 10:09:03;;;;;;;9.73;5.10;;;23.40;90.10;;;;;;5012820;28;20033;-76
2021/09/10 10:11:38;;;;;;;10.52;5.28;;;23.50;89.90;;;;;;5012098;28;20026;-75
2021/09/10 10:14:06;;;;;;;8.23;3.88;;;23.60;89.60;;;;;;5012701;28;20029;-75
2021/09/10 10:16:35;;;;;;;7.80;3.28;;;23.70;89.20;;;;;;5011993;28;20360;-75
2021/09/10 10:19:03;;;;;;;8.00;4.60;;;23.80;88.90;;;;;;5011168;28;20057;-74
2021/09/10 10:21:50;;;;;;;10.68;4.38;;;23.80;88.50;;;;;;5010548;28;20394;-74
2021/09/10 10:24:40;;;;;;;9.10;4.15;;;23.90;88.40;;;;;;5011801;28;20437;-74
2021/09/10 10:27:30;;;;;;;7.10;3.80;;;23.90;88.10;;;;;;5012550;28;20139;-74
2021/09/10 10:29:57;;;;;;;5.97;3.45;;;23.90;88.10;;;;;;5012809;28;20479;-74
2021/09/10 10:32:43;;;;;;;7.57;4.30;;;23.80;87.90;;;;;;5011360;28;20352;-74
2021/09/10 10:35:30;;;;;;;9.05;4.28;;;23.80;87.80;;;;;;5012134;28;20030;-74
2021/09/10 10:38:02;;;;;;;6.90;3.53;;;23.80;88.20;;;;;;5011389;28;20417;-75
2021/09/10 10:40:49;;;;;;;5.35;3.38;;;23.80;87.60;;;;;;5011592;28;20029;-74
2021/09/10 10:43:18;;;;;;;5.45;2.95;;;23.90;87.50;;;;;;5010243;28;20356;-74
2021/09/10 10:45:47;;;;;;;5.68;3.42;;;23.90;87.30;;;;;;5011947;28;20025;-74
2021/09/10 10:48:33;;;;;;;5.75;3.00;;;23.90;87.20;;;;;;5010871;28;20049;-74
2021/09/10 10:51:12;;;;;;;5.97;3.45;;;24.00;87.20;;;;;;5012263;28;20026;-74
2021/09/10 10:53:58;;;;;;;7.70;3.88;;;24.10;87.10;;;;;;5011494;28;20065;-74
2021/09/10 10:56:24;;;;;;;7.47;4.10;;;24.20;87.00;;;;;;5011281;28;20470;-74
2021/09/10 10:59:15;;;;;;;9.05;3.53;;;24.30;86.80;;;;;;5011846;28;20025;-74
2021/09/10 11:02:21;;;;;;;8.43;4.20;;;24.30;86.60;;;;;;5010688;28;20378;-74
2021/09/10 11:04:51;;;;;;;6.53;3.83;;;24.30;86.50;;;;;;5012051;28;20030;-74
2021/09/10 11:07:35;;;;;;;9.32;3.72;;;24.20;86.70;;;;;;5011466;28;20072;-75
2021/09/10 11:10:04;;;;;;;6.30;3.85;;;24.00;86.80;;;;;;5011078;28;20025;-75
2021/09/10 11:12:31;;;;;;;5.75;3.65;;;23.90;87.10;;;;;;5009979;28;20022;-75
2021/09/10 11:14:57;;;;;;;7.63;4.32;;;23.90;87.30;;;;;;5013132;28;20030;-75
2021/09/10 11:17:27;;;;;;;5.70;3.78;;;23.90;87.10;;;;;;5014940;28;20029;-75
2021/09/10 11:19:55;;;;;;;9.30;4.18;;;23.90;87.10;;;;;;5015880;28;20025;-74
2021/09/10 11:22:21;;;;;;;9.63;3.65;;;24.00;87.00;;;;;;5015178;28;20048;-73
2021/09/10 11:24:48;;;;;;;5.70;3.00;;;24.10;86.80;;;;;;5016188;28;20088;-74
2021/09/10 11:27:30;;;;;;;6.00;3.47;;;24.20;86.80;;;;;;5016077;28;20033;-74
2021/09/10 11:30:23;;;;;;;4.65;2.83;;;24.30;86.40;;;;;;5015853;28;20060;-74
2021/09/10 11:33:02;;;;;;;7.15;3.65;;;24.30;85.90;;;;;;5013669;28;20022;-75
2021/09/10 11:35:30;;;;;;;4.93;2.65;;;24.30;85.30;;;;;;5014897;28;20195;-75
2021/09/10 11:38:05;;;;;;;5.35;2.90;;;24.30;85.30;;;;;;5015667;28;20471;-75
2021/09/10 11:40:32;;;;;;;5.10;3.28;;;24.50;84.80;;;;;;5014758;28;20483;-75
2021/09/10 11:43:09;;;;;;;8.02;3.35;;;24.50;84.10;;;;;;5014250;28;20033;-75
2021/09/10 11:45:45;;;;;;;6.22;3.78;;;24.50;84.10;;;;;;5014625;28;20121;-74
2021/09/10 11:48:13;;;;;;;6.35;3.28;;;24.50;84.10;;;;;;5015031;28;20489;-75
2021/09/10 11:50:53;;;;;;;7.60;3.78;;;24.40;84.40;;;;;;5014246;28;20514;-74
2021/09/10 11:53:27;;;;;;;6.75;3.13;;;24.30;84.70;;;;;;5014692;28;20473;-74
2021/09/10 11:56:09;;;;;;;5.47;3.10;;;24.10;85.00;;;;;;5015110;28;20033;-75
2021/09/10 11:58:43;;;;;;;8.15;3.67;;;23.90;85.60;;;;;;5013373;28;20040;-75
2021/09/10 12:01:27;;;;;;;6.30;3.97;;;23.70;86.50;;;;;;5013876;28;20018;-75
2021/09/10 12:03:56;;;;;;;7.60;3.92;;;23.50;87.50;;;;;;5014775;28;20453;-75
2021/09/10 12:06:45;;;;;;;7.50;3.72;;;23.30;88.20;;;;;;5012698;28;20111;-75
2021/09/10 12:09:10;;;;;;;4.88;2.38;;;22.60;90.60;;;;;;5014981;28;20022;-75
2021/09/10 12:11:56;;;;;;;2.85;1.52;;;22.00;91.50;;;;;;5013082;28;20029;-76
2021/09/10 12:14:32;;;;;;;2.45;1.23;;;21.90;92.30;;;;;;5014323;28;20037;-77
2021/09/10 12:17:13;;;;;;;0.93;0.57;;;21.70;92.60;;;;;;5014811;28;20044;-76
2021/09/10 12:20:05;;;;;;;0.80;0.60;;;21.60;93.00;;;;;;5014313;28;20034;-75
2021/09/10 12:22:46;;;;;;;0.35;0.35;;;21.60;93.40;;;;;;5012251;28;20054;-75
2021/09/10 12:25:25;;;;;;;0.50;0.40;;;21.60;93.80;;;;;;5013372;28;20128;-75
2021/09/10 12:28:14;;;;;;;0.22;0.22;;;21.60;94.10;;;;;;5013636;28;20034;-76
2021/09/10 12:30:48;;;;;;;0.20;0.20;;;21.50;94.60;;;;;;5012547;28;20021;-75
2021/09/10 12:33:19;;;;;;;0.20;0.20;;;21.40;95.00;;;;;;5013309;28;20026;-75
2021/09/10 12:35:47;;;;;;;0.10;0.10;;;21.50;95.30;;;;;;5012656;28;20390;-75
2021/09/10 12:38:17;;;;;;;0.20;0.20;;;21.50;95.60;;;;;;5014359;28;20022;-75
2021/09/10 12:40:53;;;;;;;0.10;0.10;;;21.50;95.90;;;;;;5013576;28;20026;-75
2021/09/10 12:43:23;;;;;;;0.10;0.10;;;21.50;96.20;;;;;;5013142;28;20109;-75
2021/09/10 12:45:49;;;;;;;0.10;0.10;;;21.40;96.40;;;;;;5014132;28;20065;-75